LFRQ/UIP METAR and TAF weather

Enter ICAO airport designator
Station Type Date Time Source
LFRQ METAR 2020/08/06 00:30 UTC NOAA

LFRQ 060030Z AUTO 18004KT 0550 R28/0650N FG VV/// 18/18 Q1016


Station Type Date Time Source
LFRQ Decoded METAR 2020/08/06 00:30 UTC NOAA

Quimper, France (LFRQ) 47-58N 004-10W 94M
Aug 05, 2020 - 08:30 PM EDT / 2020.08.06 0030 UTC
Wind: from the S (180 degrees) at 5 MPH (4 KT):0
Visibility: less than 1 mile:0
Sky conditions: obscured
Weather: fog
Temperature: 64 F (18 C)
Dew Point: 64 F (18 C)
Relative Humidity: 100%
Pressure (altimeter): 30.00 in. Hg (1016 hPa)
ob: LFRQ 060030Z AUTO 18004KT 0550 R28/0650N FG VV/// 18/18 Q1016
cycle: 0

Station Type Date Time Source
LFRQ TAF 2020/08/05 21:09 UTC NOAA

TAF
AMD TAF
AMD LFRQ 052105Z 0521/0618 CNL

Example: see airport list